createdAt,value
2023-05-02T00:03:37.233Z,101468.66
2023-05-02T00:07:40.083Z,101470.38
2023-05-02T00:11:42.816Z,101473.00
2023-05-02T00:15:45.986Z,101466.09
2023-05-02T00:19:50.036Z,101465.84
2023-05-02T00:23:52.850Z,101471.09
2023-05-02T00:27:56.164Z,101468.28
2023-05-02T00:31:58.884Z,101465.19
2023-05-02T00:36:02.902Z,101479.56
2023-05-02T00:40:06.464Z,101482.06
2023-05-02T00:44:09.369Z,101480.84
2023-05-02T00:48:12.650Z,101486.28
2023-05-02T00:52:17.030Z,101482.88
2023-05-02T00:56:19.702Z,101473.19
2023-05-02T01:00:28.413Z,101482.28
2023-05-02T01:04:40.677Z,101480.16
2023-05-02T01:08:50.758Z,101471.16
2023-05-02T01:13:00.938Z,101479.47
2023-05-02T01:17:06.253Z,101485.16
2023-05-02T01:21:11.235Z,101483.72
2023-05-02T01:25:30.965Z,101472.63
2023-05-02T01:29:38.245Z,101475.94
2023-05-02T01:33:41.625Z,101480.56
2023-05-02T01:37:46.529Z,101480.22
2023-05-02T01:41:53.293Z,101491.44
2023-05-02T01:45:59.075Z,101482.06
2023-05-02T01:50:04.308Z,101498.25
2023-05-02T01:54:09.519Z,101493.44
2023-05-02T01:58:13.106Z,101499.72
2023-05-02T02:02:18.698Z,101498.69
2023-05-02T02:06:22.728Z,101501.41
2023-05-02T02:10:30.643Z,101504.53
2023-05-02T02:14:36.148Z,101515.63
2023-05-02T02:18:40.592Z,101511.03
2023-05-02T02:22:45.286Z,101516.06
2023-05-02T02:26:48.030Z,101523.81
2023-05-02T02:30:51.200Z,101529.06
2023-05-02T02:34:55.426Z,101517.53
2023-05-02T02:39:11.523Z,101526.03
2023-05-02T02:43:20.350Z,101529.13
2023-05-02T02:47:28.382Z,101540.09
2023-05-02T02:51:39.405Z,101559.25
2023-05-02T02:55:48.827Z,101560.28
2023-05-02T03:00:01.122Z,101570.25
2023-05-02T03:04:06.876Z,101588.63
2023-05-02T03:08:11.076Z,101586.03
2023-05-02T03:12:14.190Z,101596.31
2023-05-02T03:16:37.402Z,101609.72
2023-05-02T03:20:42.922Z,101616.28
2023-05-02T03:24:47.459Z,101619.69
2023-05-02T03:28:51.418Z,101618.03
2023-05-02T03:33:00.421Z,101620.47
2023-05-02T03:37:03.202Z,101622.78
2023-05-02T03:41:08.633Z,101624.84
2023-05-02T03:45:12.070Z,101637.44
2023-05-02T03:49:14.839Z,101639.69
2023-05-02T03:53:20.396Z,101644.31
2023-05-02T03:57:32.267Z,101652.50
2023-05-02T04:01:35.616Z,101654.03
2023-05-02T04:05:38.732Z,101662.63
2023-05-02T04:09:41.963Z,101662.00
2023-05-02T04:13:48.387Z,101664.31
2023-05-02T04:17:51.101Z,101676.22
2023-05-02T04:21:54.895Z,101679.59
2023-05-02T04:25:57.773Z,101681.28
2023-05-02T04:30:14.636Z,101689.00
2023-05-02T04:34:21.818Z,101700.13
2023-05-02T04:38:25.215Z,101694.22
2023-05-02T04:42:28.174Z,101710.31
2023-05-02T04:46:49.100Z,101709.69
2023-05-02T04:50:53.522Z,101720.19
2023-05-02T04:54:57.123Z,101730.66
2023-05-02T04:59:00.816Z,101743.91
2023-05-02T05:03:06.398Z,101767.94
2023-05-02T05:07:09.580Z,101772.56
2023-05-02T05:11:12.519Z,101780.91
2023-05-02T05:15:15.702Z,101787.16
2023-05-02T05:19:23.831Z,101790.47
2023-05-02T05:23:27.259Z,101800.50
2023-05-02T05:27:30.474Z,101806.72
2023-05-02T05:31:33.676Z,101824.22
2023-05-02T05:35:38.703Z,101827.34
2023-05-02T05:39:41.526Z,101838.38
2023-05-02T05:43:45.154Z,101859.00
2023-05-02T05:47:48.553Z,101858.06
2023-05-02T05:51:52.923Z,101875.50
2023-05-02T05:55:55.663Z,101879.31
2023-05-02T05:59:58.872Z,101884.34
2023-05-02T06:04:02.958Z,101886.59
2023-05-02T06:08:07.390Z,101892.53
2023-05-02T06:12:10.126Z,101908.78
2023-05-02T06:16:14.323Z,101909.09
2023-05-02T06:20:18.710Z,101931.50
2023-05-02T06:24:23.054Z,101926.66
2023-05-02T06:28:25.698Z,101931.03
2023-05-02T06:32:31.484Z,101934.22
2023-05-02T06:36:34.235Z,101943.66
2023-05-02T06:40:45.116Z,101948.41
2023-05-02T06:44:47.761Z,101960.38
2023-05-02T06:48:50.682Z,101976.75
2023-05-02T06:52:53.536Z,101987.91
2023-05-02T06:56:57.584Z,101995.25
2023-05-02T07:01:00.281Z,102003.03
2023-05-02T07:05:03.117Z,102002.72
2023-05-02T07:09:10.802Z,102007.56
2023-05-02T07:13:14.869Z,102006.78
2023-05-02T07:17:17.704Z,102015.66
2023-05-02T07:21:20.447Z,102028.63
2023-05-02T07:25:23.087Z,102023.88
2023-05-02T07:29:27.197Z,102033.47
2023-05-02T07:33:30.238Z,102032.59
2023-05-02T07:37:35.204Z,102032.84
2023-05-02T07:41:37.923Z,102039.19
2023-05-02T07:45:41.998Z,102049.50
2023-05-02T07:49:44.840Z,102043.91
2023-05-02T07:53:47.686Z,102042.75
2023-05-02T07:57:50.418Z,102047.63
2023-05-02T08:01:54.451Z,102060.06
2023-05-02T08:05:57.227Z,102059.06
2023-05-02T08:10:00.171Z,102065.13
2023-05-02T08:14:03.347Z,102073.50
2023-05-02T08:18:07.437Z,102066.59
2023-05-02T08:22:10.306Z,102067.41
2023-05-02T08:26:12.989Z,102083.50
2023-05-02T08:30:15.797Z,102088.78
2023-05-02T08:34:19.763Z,102085.63
2023-05-02T08:38:22.481Z,102086.06
2023-05-02T08:42:25.823Z,102097.16
2023-05-02T08:46:29.961Z,102105.28
2023-05-02T08:50:36.756Z,102109.28
2023-05-02T08:54:39.890Z,102119.53
2023-05-02T08:58:42.885Z,102132.13
2023-05-02T09:02:59.079Z,102136.75
2023-05-02T09:07:03.921Z,102126.88
2023-05-02T09:11:07.924Z,102138.53
2023-05-02T09:15:12.326Z,102140.84
2023-05-02T09:19:25.984Z,102144.59
2023-05-02T09:23:38.397Z,102142.34
2023-05-02T09:27:52.054Z,102139.91
2023-05-02T09:31:56.652Z,102148.56
2023-05-02T09:35:59.495Z,102149.19
2023-05-02T09:40:11.073Z,102169.88
2023-05-02T09:44:15.556Z,102176.16
2023-05-02T09:48:18.232Z,102174.63
2023-05-02T09:52:22.490Z,102187.97
2023-05-02T09:56:26.766Z,102191.97
2023-05-02T10:00:43.484Z,102192.25
2023-05-02T10:04:48.161Z,102200.75
2023-05-02T10:08:51.045Z,102204.56
2023-05-02T10:12:56.189Z,102203.28
2023-05-02T10:17:02.761Z,102208.34
2023-05-02T10:21:10.087Z,102213.59
2023-05-02T10:25:13.490Z,102214.66
2023-05-02T10:29:17.745Z,102210.88
2023-05-02T10:33:22.201Z,102213.59
2023-05-02T10:37:26.547Z,102226.75
2023-05-02T10:41:33.041Z,102221.47
2023-05-02T10:45:38.601Z,102228.19
2023-05-02T10:49:50.954Z,102230.69
2023-05-02T10:53:53.796Z,102231.75
2023-05-02T10:58:21.960Z,102226.19
2023-05-02T11:02:50.180Z,102227.47
2023-05-02T11:07:18.159Z,102220.28
2023-05-02T11:11:41.367Z,102221.97
2023-05-02T11:15:57.739Z,102226.50
2023-05-02T11:20:26.932Z,102232.22
2023-05-02T11:24:39.828Z,102238.72
2023-05-02T11:28:47.882Z,102229.22
2023-05-02T12:38:10.313Z,102277.63
2023-05-02T12:42:13.953Z,102272.78
2023-05-02T12:46:17.240Z,102284.09
2023-05-02T12:50:19.951Z,102275.66
2023-05-02T12:54:24.394Z,102282.78
2023-05-02T12:58:28.512Z,102285.53
2023-05-02T13:02:31.945Z,102282.00
2023-05-02T13:06:37.647Z,102301.00
2023-05-02T13:10:41.879Z,102291.72
2023-05-02T13:14:45.103Z,102297.91
2023-05-02T13:18:48.065Z,102294.88
2023-05-02T13:22:51.086Z,102298.16
2023-05-02T13:26:55.621Z,102296.13
2023-05-02T13:30:58.286Z,102288.13
2023-05-02T13:35:01.313Z,102289.09
2023-05-02T13:39:04.390Z,102301.38
2023-05-02T13:43:08.512Z,102298.50
2023-05-02T13:47:11.190Z,102291.69
2023-05-02T13:51:13.891Z,102303.28
2023-05-02T13:55:16.997Z,102298.00
2023-05-02T13:59:21.000Z,102306.25
2023-05-02T14:03:23.704Z,102307.03
2023-05-02T14:07:26.442Z,102297.78
2023-05-02T14:11:29.089Z,102297.66
2023-05-02T14:15:33.161Z,102305.53
2023-05-02T14:19:35.892Z,102308.03
2023-05-02T14:23:38.587Z,102303.41
2023-05-02T14:27:41.915Z,102310.50
2023-05-02T14:31:46.563Z,102298.69
2023-05-02T14:35:49.823Z,102306.81
2023-05-02T14:39:56.061Z,102305.63
2023-05-02T14:43:58.930Z,102298.97
2023-05-02T14:48:03.018Z,102302.63
2023-05-02T14:52:05.850Z,102312.50
2023-05-02T14:56:13.447Z,102313.16
2023-05-02T15:00:17.385Z,102303.28
2023-05-02T15:04:21.477Z,102304.63
2023-05-02T15:08:25.129Z,102305.69
2023-05-02T15:12:27.812Z,102309.25
2023-05-02T15:16:30.842Z,102315.16
2023-05-02T15:20:34.861Z,102310.59
2023-05-02T15:24:37.707Z,102310.44
2023-05-02T15:28:40.640Z,102312.09
2023-05-02T15:32:43.269Z,102315.41
2023-05-02T15:36:47.270Z,102313.59
2023-05-02T15:40:57.015Z,102310.63
2023-05-02T15:44:59.982Z,102321.78
2023-05-02T15:49:02.657Z,102321.41
2023-05-02T15:53:06.741Z,102314.81
2023-05-02T15:57:10.197Z,102323.09
2023-05-02T16:01:12.956Z,102325.16
2023-05-02T16:05:15.688Z,102323.16
2023-05-02T16:09:20.907Z,102336.16
2023-05-02T16:13:23.544Z,102347.81
2023-05-02T16:17:26.365Z,102346.47
2023-05-02T16:21:29.348Z,102349.25
2023-05-02T16:25:33.378Z,102352.38
2023-05-02T16:29:36.098Z,102350.09
2023-05-02T16:33:39.023Z,102358.00
2023-05-02T16:37:42.905Z,102354.72
2023-05-02T16:41:47.080Z,102360.00
2023-05-02T16:45:49.697Z,102357.38
2023-05-02T16:49:55.589Z,102362.22
2023-05-02T16:53:58.289Z,102363.97
2023-05-02T16:58:02.234Z,102367.16
2023-05-02T17:02:04.927Z,102367.84
2023-05-02T17:06:08.162Z,102375.75
2023-05-02T17:10:12.333Z,102365.03
2023-05-02T17:14:16.389Z,102367.94
2023-05-02T17:18:19.198Z,102363.28
2023-05-02T17:22:21.911Z,102363.75
2023-05-02T17:26:24.852Z,102365.03
2023-05-02T17:30:29.029Z,102368.22
2023-05-02T17:34:33.380Z,102368.69
2023-05-02T17:38:36.088Z,102369.09
2023-05-02T17:42:45.409Z,102371.84
2023-05-02T17:46:49.769Z,102371.47
2023-05-02T17:50:53.323Z,102364.75
2023-05-02T17:54:56.040Z,102376.31
2023-05-02T17:58:59.607Z,102383.22
2023-05-02T18:03:03.753Z,102385.31
2023-05-02T18:07:06.571Z,102385.94
2023-05-02T18:11:14.825Z,102392.03
2023-05-02T18:15:17.625Z,102400.84
2023-05-02T18:19:22.901Z,102397.88
2023-05-02T18:23:25.585Z,102398.50
2023-05-02T18:27:28.482Z,102410.06
2023-05-02T18:31:31.971Z,102405.63
2023-05-02T18:35:36.453Z,102405.38
2023-05-02T18:39:39.191Z,102418.16
2023-05-02T18:43:41.834Z,102412.28
2023-05-02T18:47:44.534Z,102413.31
2023-05-02T18:51:48.591Z,102414.78
2023-05-02T18:55:51.457Z,102414.97
2023-05-02T18:59:54.151Z,102419.97
2023-05-02T19:03:57.374Z,102414.09
2023-05-02T19:08:01.505Z,102420.38
2023-05-02T19:12:04.221Z,102425.78
2023-05-02T19:16:11.374Z,102426.84
2023-05-02T19:20:14.121Z,102425.38
2023-05-02T19:24:18.448Z,102429.78
2023-05-02T19:28:21.650Z,102428.50
2023-05-02T19:32:25.132Z,102441.84
2023-05-02T19:36:28.376Z,102439.28
2023-05-02T19:40:32.448Z,102443.84
2023-05-02T19:44:35.135Z,102447.56
2023-05-02T19:48:37.916Z,102454.31
2023-05-02T19:52:41.600Z,102464.13
2023-05-02T19:56:48.646Z,102464.91
2023-05-02T20:00:51.761Z,102469.72
2023-05-02T20:04:54.854Z,102469.25
2023-05-02T20:08:57.525Z,102487.16
2023-05-02T20:13:01.535Z,102483.81
2023-05-02T20:17:04.623Z,102476.69
2023-05-02T20:21:07.389Z,102489.88
2023-05-02T20:25:11.492Z,102501.47
2023-05-02T20:29:15.557Z,102503.59
2023-05-02T20:33:19.708Z,102509.53
2023-05-02T20:37:22.990Z,102506.56
2023-05-02T20:41:26.716Z,102510.63
2023-05-02T20:45:30.687Z,102508.78
2023-05-02T20:49:33.974Z,102510.13
2023-05-02T20:53:36.837Z,102506.13
2023-05-02T20:57:41.277Z,102517.63
2023-05-02T21:01:45.296Z,102518.78
2023-05-02T21:05:53.746Z,102515.34
2023-05-02T21:09:56.389Z,102514.97
2023-05-02T21:14:00.063Z,102525.19
2023-05-02T21:18:04.862Z,102523.22
2023-05-02T21:22:07.621Z,102522.75
2023-05-02T21:26:10.451Z,102517.41
2023-05-02T21:30:14.216Z,102524.63
2023-05-02T21:34:18.813Z,102514.78
2023-05-02T21:38:21.606Z,102518.34
2023-05-02T21:42:24.382Z,102520.59
2023-05-02T21:46:27.170Z,102523.19
2023-05-02T21:50:31.285Z,102524.56
2023-05-02T21:54:34.470Z,102532.34
2023-05-02T21:58:37.248Z,102525.13
2023-05-02T22:02:39.933Z,102527.66
2023-05-02T22:06:44.112Z,102526.31
2023-05-02T22:10:46.848Z,102522.75
2023-05-02T22:14:49.981Z,102523.31
2023-05-02T22:18:52.658Z,102519.94
2023-05-02T22:22:56.695Z,102517.69
2023-05-02T22:26:59.383Z,102526.66
2023-05-02T22:31:01.988Z,102528.88
2023-05-02T22:35:04.859Z,102532.97
2023-05-02T22:39:12.835Z,102538.56
2023-05-02T22:43:15.836Z,102533.72
2023-05-02T22:47:18.701Z,102528.00
2023-05-02T22:51:21.371Z,102531.00
2023-05-02T22:55:25.774Z,102525.47
2023-05-02T22:59:29.580Z,102519.94
2023-05-02T23:03:32.431Z,102520.50
2023-05-02T23:07:35.172Z,102525.59
2023-05-02T23:11:39.160Z,102521.56
2023-05-02T23:15:42.044Z,102522.25
2023-05-02T23:19:44.738Z,102527.41
2023-05-02T23:23:47.338Z,102529.16
2023-05-02T23:27:51.713Z,102525.50
2023-05-02T23:31:55.432Z,102517.63
2023-05-02T23:35:58.678Z,102513.94
2023-05-02T23:40:02.655Z,102524.06
2023-05-02T23:44:07.009Z,102521.53
2023-05-02T23:48:09.783Z,102517.34
2023-05-02T23:52:12.470Z,102517.84
2023-05-02T23:56:15.276Z,102524.47
